Briefing drone pour Tournon-sur-rhone

Rechercher une autre localisation

Conditions de vol :


Nous sommes le : Jeudi 08 décembre 2022
Il est 22:40 UTC (23:40 LT)

Lever de soleil : 06:40 UTC (07:40 LT)
Coucher de soleil : 16:25 UTC (17:25 LT)

Météo

L'essentiel des conditions de vol

VIGILANCE MÉTÉO FRANCE - Ardèche (07)
Pas de vigilances particulieres
METAR de LFLU
LFLU 081800Z AUTO 00000KT 9999 -RA BKN043/// OVC050/// ///TCU 04/01 Q1006

Date d'émission: 08/12/2022
Heure d'émission: 18:00 UTC
Vent: Calme
Visibilité horizontale: > 10 km
Plafond :
- Nuages morcelés à 4300ft (1311m)
- Couvert à 5000ft (1524m)
Température: 4 °C
Point de rosée: 1 °C
Humidité: 81%
Pression (QNH): 1006 hPa
Conditions: Faible pluie
Prévision 24h pour Valence (10 km)
Vent : 349° pour 3 KT (11 km/h)
Temperature Maxi: 4 °C
Temperature Min: 4 °C
Humidité : 95%
Condition : Légère pluie



Warning: count(): Parameter must be an array or an object that implements Countable in /homepages/6/d509196549/htdocs/droneoxygene/briefing.php on line 743
WEBCAM POUR TOURNON-SUR-RHONE

Réglementation

Voler en sécurité

CARTES AERONAUTIQUE 1/500.000
CARTE AZBA (Reseau basse altitude)
CARTES VAC (LFLU)
SUP AIP




Chargement des AIP...
NOTAM (TOURNON-SUR-RHONE + Terrain à proximité / FIR )




Chargement des NOTAMS...
CONTACT PREFECTURE 07


Avertissement : Les données mises à disposition sont indicatives. Oxygène Drone ne pourra être tenu responsable de dégâts causés aux biens et aux personnes.